Monarch Beach, California
Current Conditions -  °F | °C
As of 10:53 AM on Monday 20 Oct 2014 (Local Time) from KSNA Reporting Station
Overcast Overcast  
Wind Chill: 73°   Ceiling: 2100
Heat Index: 73°   Visibility: 10mi
Dew Point: 60°   Wind: 5mph
Humidity: 64%   Direction: 190°S
Pressure: 29.95"   Gusts: NA
Location:  33.4774°N, 117.704°W
Report Text: KSNA 201753Z 19004KT 10SM OVC021 23/16 A2995 RMK AO2 SLP141 T02280156 10228 20211 51013
Loading
Personal Weather Stations






























Interactive Weather Map
Tropical Storm Tracking
New forecast layout! Learn more

10-Day Weather Forecast

Advertisements
Track Severe Weather on mobile